Time;durP1;ratioP1;P1;durP2;ratioP2;P2;SDS_P1;SDS_P2;PMS_P1;PMS_P2;Temp;Humidity;BMP_temperature;BMP_pressure;BME280_temperature;BME280_humidity;BME280_pressure;Samples;Min_cycle;Max_cycle;Signal;HPM_P1;HPM_P2
2022/01/18 00:01:39;;;;;;;30.13;16.33;;;4.30;99.90;;;;;;5031599;28;20049;-74
2022/01/18 00:04:06;;;;;;;29.75;16.98;;;4.20;99.90;;;;;;5032642;28;20126;-74
2022/01/18 00:06:32;;;;;;;27.90;16.23;;;4.40;99.90;;;;;;5031361;28;20171;-74
2022/01/18 00:08:57;;;;;;;27.50;15.45;;;4.80;99.90;;;;;;5031076;28;20085;-74
2022/01/18 00:11:25;;;;;;;29.25;16.75;;;4.60;99.90;;;;;;5032576;28;20108;-75
2022/01/18 00:13:59;;;;;;;26.60;14.75;;;4.40;99.90;;;;;;5031848;28;20117;-74
2022/01/18 00:16:38;;;;;;;31.10;17.23;;;4.60;99.90;;;;;;5032469;28;20120;-75
2022/01/18 00:19:09;;;;;;;30.15;15.73;;;4.30;99.90;;;;;;5031242;28;20033;-74
2022/01/18 00:24:19;;;;;;;32.15;16.55;;;4.40;99.90;;;;;;5032696;28;20106;-74
2022/01/18 00:26:45;;;;;;;32.20;16.33;;;4.60;99.90;;;;;;5014738;28;20128;-74
2022/01/18 00:29:14;;;;;;;27.75;15.98;;;4.40;99.90;;;;;;5030117;28;20029;-75
2022/01/18 00:34:41;;;;;;;26.55;16.48;;;5.30;99.90;;;;;;5049643;28;20021;-75
2022/01/18 00:39:36;;;;;;;30.02;17.05;;;4.50;99.90;;;;;;5031536;28;20410;-74
2022/01/18 00:42:02;;;;;;;31.65;17.27;;;4.50;99.90;;;;;;5032026;28;20164;-74
2022/01/18 00:44:28;;;;;;;29.17;16.40;;;4.40;99.90;;;;;;5031430;28;20029;-74
2022/01/18 00:46:53;;;;;;;29.95;17.00;;;4.50;99.90;;;;;;5032031;28;20030;-73
2022/01/18 00:49:19;;;;;;;31.30;16.92;;;4.30;99.90;;;;;;5031371;28;20033;-74
2022/01/18 00:51:52;;;;;;;31.10;16.98;;;4.40;99.90;;;;;;5032008;28;20034;-74
2022/01/18 00:54:22;;;;;;;;;;;4.40;99.90;;;;;;5031002;28;20031;-74
2022/01/18 00:56:51;;;;;;;33.78;18.27;;;4.50;99.90;;;;;;5032066;28;19919;-74
2022/01/18 00:59:17;;;;;;;33.22;17.48;;;4.30;99.90;;;;;;5030956;28;20044;-74
2022/01/18 01:01:43;;;;;;;31.33;17.20;;;4.50;99.90;;;;;;5031613;28;20405;-74
2022/01/18 01:04:09;;;;;;;36.35;19.20;;;4.30;99.90;;;;;;5031582;28;20033;-74
2022/01/18 01:06:35;;;;;;;31.75;16.95;;;4.80;99.90;;;;;;5031824;28;20029;-74
2022/01/18 01:09:02;;;;;;;28.42;16.88;;;4.40;99.90;;;;;;5031272;28;20030;-74
2022/01/18 01:11:28;;;;;;;32.65;17.73;;;5.10;99.90;;;;;;5030427;28;20446;-75
2022/01/18 01:13:58;;;;;;;30.00;16.67;;;4.50;99.90;;;;;;5032215;28;20052;-74
2022/01/18 01:44:07;;;;;;;31.08;17.00;;;4.60;99.90;;;;;;5035173;28;20052;-74
2022/01/18 01:46:35;;;;;;;29.55;16.00;;;4.80;99.90;;;;;;5034677;28;20029;-75
2022/01/18 01:49:04;;;;;;;36.08;17.67;;;5.60;99.90;;;;;;5034756;28;20029;-74
2022/01/18 01:51:30;;;;;;;28.60;16.83;;;4.60;99.90;;;;;;5034876;28;20060;-74
2022/01/18 01:53:59;;;;;;;27.67;16.35;;;4.50;99.90;;;;;;5035017;28;20402;-74
2022/01/18 01:56:24;;;;;;;27.83;16.80;;;4.50;99.90;;;;;;5034752;28;20022;-74
2022/01/18 01:58:50;;;;;;;33.95;17.02;;;4.60;99.90;;;;;;5033929;28;20482;-74
2022/01/18 02:01:16;;;;;;;36.55;17.23;;;4.50;99.90;;;;;;5033584;28;20104;-73
2022/01/18 02:03:42;;;;;;;33.05;17.55;;;4.60;99.90;;;;;;5034778;28;20510;-74
2022/01/18 02:06:07;;;;;;;28.13;16.30;;;4.70;99.90;;;;;;5034361;28;20108;-74
2022/01/18 02:08:33;;;;;;;32.47;17.40;;;5.30;99.90;;;;;;5034188;28;20515;-74
2022/01/18 02:10:59;;;;;;;31.92;17.10;;;4.60;99.90;;;;;;5034692;28;20021;-74
2022/01/18 02:13:24;;;;;;;29.33;16.80;;;5.20;99.90;;;;;;5034358;28;20028;-74
2022/01/18 02:23:57;;;;;;;29.27;16.88;;;5.40;99.90;;;;;;5034299;28;20055;-74
2022/01/18 02:26:22;;;;;;;28.95;16.08;;;4.70;99.90;;;;;;5032905;28;20175;-73
2022/01/18 02:28:48;;;;;;;29.63;15.75;;;4.80;99.90;;;;;;5016613;28;20038;-75
2022/01/18 02:31:13;;;;;;;29.90;17.52;;;4.70;99.90;;;;;;5034510;28;20069;-75
2022/01/18 02:33:39;;;;;;;28.77;17.08;;;4.80;99.90;;;;;;5032809;28;20037;-76
2022/01/18 02:36:09;;;;;;;31.55;16.08;;;4.90;99.90;;;;;;5034195;28;20072;-75
2022/01/18 02:38:35;;;;;;;29.48;16.60;;;4.70;99.90;;;;;;5032360;28;20030;-74
2022/01/18 02:41:00;;;;;;;26.73;16.05;;;4.70;99.90;;;;;;5032629;28;20076;-76
2022/01/18 02:46:11;;;;;;;32.53;16.65;;;4.80;99.90;;;;;;5034203;28;20048;-75
2022/01/18 02:48:37;;;;;;;26.48;15.93;;;4.60;99.90;;;;;;5033921;28;20033;-76
2022/01/18 02:51:03;;;;;;;27.73;16.15;;;5.30;99.90;;;;;;5034015;28;20033;-75
2022/01/18 02:53:29;;;;;;;31.27;17.73;;;4.70;99.90;;;;;;5033925;28;20041;-74
2022/01/18 02:55:56;;;;;;;31.30;16.00;;;4.80;99.90;;;;;;5033755;28;20138;-75
2022/01/18 02:58:31;;;;;;;26.50;16.10;;;4.80;99.90;;;;;;5032166;28;20483;-75
2022/01/18 03:03:33;;;;;;;;;;;5.90;99.90;;;;;;5034252;28;20474;-74
2022/01/18 03:06:00;;;;;;;29.15;15.65;;;4.80;99.90;;;;;;5033597;28;20328;-75
2022/01/18 03:08:26;;;;;;;28.15;16.42;;;4.80;99.90;;;;;;5033085;28;20034;-73
2022/01/18 03:10:52;;;;;;;32.65;17.90;;;4.90;99.90;;;;;;5033434;28;20068;-76
2022/01/18 03:13:19;;;;;;;28.98;17.05;;;4.60;99.90;;;;;;5033660;28;20021;-75
2022/01/18 03:15:44;;;;;;;26.25;15.60;;;4.50;99.90;;;;;;5032773;28;20029;-75
2022/01/18 03:18:10;;;;;;;29.52;17.60;;;4.50;99.90;;;;;;5033426;28;20610;-74
2022/01/18 03:20:37;;;;;;;27.33;16.45;;;5.90;99.90;;;;;;5031154;28;20135;-75
2022/01/18 03:23:07;;;;;;;29.90;17.10;;;4.70;99.90;;;;;;5032226;28;20478;-76
2022/01/18 03:28:05;;;;;;;28.25;14.82;;;4.80;99.90;;;;;;5032691;28;20053;-74
2022/01/18 03:30:46;;;;;;;25.08;14.52;;;6.30;99.90;;;;;;5032380;28;20048;-74
2022/01/18 03:33:14;;;;;;;26.90;15.02;;;4.90;99.90;;;;;;5031913;28;20083;-74
2022/01/18 03:35:41;;;;;;;27.70;15.68;;;4.90;99.90;;;;;;5033076;28;20036;-74
2022/01/18 03:38:07;;;;;;;24.77;15.18;;;4.90;99.90;;;;;;5032253;28;20017;-74
2022/01/18 03:40:33;;;;;;;24.60;14.55;;;4.80;99.90;;;;;;5032354;28;20033;-74
2022/01/18 03:42:59;;;;;;;30.00;15.05;;;4.70;99.90;;;;;;5032819;28;20030;-74
2022/01/18 03:45:32;;;;;;;25.65;16.13;;;5.20;99.90;;;;;;5032539;28;20057;-74
2022/01/18 03:48:02;;;;;;;;;;;4.70;99.90;;;;;;5013598;28;20045;-74
2022/01/18 03:50:27;;;;;;;25.77;15.13;;;4.80;99.90;;;;;;5012543;28;20396;-74
2022/01/18 03:52:54;;;;;;;28.58;16.17;;;5.90;99.90;;;;;;5013148;28;20056;-74
2022/01/18 03:55:21;;;;;;;25.52;14.80;;;5.60;99.90;;;;;;5025892;28;20107;-75
2022/01/18 03:57:48;;;;;;;27.85;15.98;;;4.70;99.90;;;;;;5032830;28;20021;-74
2022/01/18 04:00:17;;;;;;;27.70;16.27;;;4.70;99.90;;;;;;5031886;28;20493;-74
2022/01/18 04:02:43;;;;;;;28.75;16.10;;;4.70;99.90;;;;;;5032784;28;20116;-74
2022/01/18 04:05:09;;;;;;;27.83;15.05;;;4.80;99.90;;;;;;5032299;28;20390;-74
2022/01/18 04:07:35;;;;;;;25.08;15.10;;;4.30;99.90;;;;;;5031545;28;20679;-74
2022/01/18 04:10:02;;;;;;;26.02;15.38;;;4.90;99.90;;;;;;5031896;28;20100;-74
2022/01/18 04:12:27;;;;;;;23.92;14.73;;;4.80;99.90;;;;;;5031508;28;20026;-74
2022/01/18 04:14:54;;;;;;;27.45;15.63;;;5.30;99.90;;;;;;5014412;28;20437;-74
2022/01/18 04:28:17;;;;;;;31.48;18.15;;;4.70;99.90;;;;;;5032325;28;20037;-75
2022/01/18 04:30:45;;;;;;;27.90;16.85;;;4.60;99.90;;;;;;5031513;28;20557;-74
2022/01/18 04:33:11;;;;;;;28.58;16.92;;;4.70;99.90;;;;;;5032113;28;20099;-75
2022/01/18 04:35:36;;;;;;;27.10;16.13;;;5.00;99.90;;;;;;5029316;28;20561;-75
2022/01/18 04:38:02;;;;;;;32.40;19.70;;;5.60;99.90;;;;;;5032309;28;20100;-74
2022/01/18 04:40:30;;;;;;;33.08;17.58;;;4.90;99.90;;;;;;5031583;28;20726;-74
2022/01/18 04:48:29;;;;;;;27.45;17.00;;;4.60;99.90;;;;;;5032159;28;20075;-74
2022/01/18 04:51:09;;;;;;;32.50;16.83;;;4.50;99.90;;;;;;5031924;28;20032;-75
2022/01/18 04:53:39;;;;;;;28.42;16.48;;;4.50;99.90;;;;;;5031837;28;20482;-74
2022/01/18 04:56:09;;;;;;;27.60;16.45;;;4.50;99.90;;;;;;5032055;28;20102;-75
2022/01/18 04:58:35;;;;;;;25.60;15.88;;;4.60;99.90;;;;;;5031730;28;20671;-75
2022/01/18 05:01:03;;;;;;;28.55;16.73;;;4.60;99.90;;;;;;5032093;28;20133;-75
2022/01/18 05:03:30;;;;;;;30.23;17.52;;;4.50;99.90;;;;;;5032063;28;20026;-75
2022/01/18 05:06:00;;;;;;;28.27;17.10;;;4.40;99.90;;;;;;5032289;28;20107;-75
2022/01/18 05:08:26;;;;;;;27.33;16.42;;;4.40;99.90;;;;;;5031632;28;20108;-75
2022/01/18 05:10:55;;;;;;;31.45;17.05;;;4.30;99.90;;;;;;5031757;28;20397;-74
2022/01/18 05:13:49;;;;;;;26.40;15.95;;;4.40;99.90;;;;;;5032157;28;20013;-75
2022/01/18 05:21:32;;;;;;;26.67;15.25;;;4.20;99.90;;;;;;5013112;28;20026;-75
2022/01/18 05:23:58;;;;;;;30.75;16.90;;;5.20;99.90;;;;;;5029500;28;20085;-75
2022/01/18 05:26:25;;;;;;;29.75;17.05;;;5.80;99.90;;;;;;5032536;28;20453;-74
2022/01/18 05:28:51;;;;;;;27.33;15.98;;;4.30;99.90;;;;;;5030616;28;20037;-75
2022/01/18 05:31:17;;;;;;;31.08;17.60;;;4.10;99.90;;;;;;5031781;28;20034;-74
2022/01/18 05:33:43;;;;;;;31.75;17.73;;;4.10;99.90;;;;;;5032522;28;20101;-75
2022/01/18 05:36:09;;;;;;;32.30;16.90;;;4.20;99.90;;;;;;5032131;28;20037;-74
2022/01/18 05:38:37;;;;;;;28.73;17.30;;;4.10;99.90;;;;;;5030335;28;20465;-75
2022/01/18 05:41:04;;;;;;;30.58;17.05;;;4.00;99.90;;;;;;5032564;28;20064;-74
2022/01/18 05:43:29;;;;;;;33.50;18.55;;;3.70;99.90;;;;;;5033484;28;20032;-74
2022/01/18 05:45:55;;;;;;;32.58;19.33;;;4.30;99.90;;;;;;5019882;28;20038;-74
2022/01/18 05:48:21;;;;;;;31.48;18.48;;;4.30;99.90;;;;;;5021685;28;20030;-74
2022/01/18 05:50:46;;;;;;;32.47;18.65;;;3.60;99.90;;;;;;5031327;28;20049;-75
2022/01/18 05:53:12;;;;;;;35.85;19.38;;;4.80;99.90;;;;;;5048225;28;20037;-75
2022/01/18 05:55:38;;;;;;;37.83;19.90;;;3.40;99.90;;;;;;5048668;28;20030;-75
2022/01/18 05:58:04;;;;;;;39.40;20.77;;;4.20;99.90;;;;;;5031892;28;20038;-74
2022/01/18 06:00:31;;;;;;;42.25;20.65;;;3.30;99.90;;;;;;5027050;28;20026;-74
2022/01/18 06:08:08;;;;;;;40.30;21.17;;;3.20;99.90;;;;;;5035061;28;20087;-74
2022/01/18 06:10:33;;;;;;;44.78;22.90;;;3.30;99.90;;;;;;5033748;28;20025;-74
2022/01/18 06:13:03;;;;;;;41.75;22.35;;;3.40;99.90;;;;;;5034393;28;20033;-73
2022/01/18 06:15:30;;;;;;;40.55;21.45;;;4.90;99.90;;;;;;5033900;28;20486;-73
2022/01/18 06:17:56;;;;;;;37.50;21.52;;;3.50;99.90;;;;;;5034447;28;20120;-73
2022/01/18 06:20:22;;;;;;;41.63;21.35;;;3.60;99.90;;;;;;5034216;28;20061;-74
2022/01/18 06:22:51;;;;;;;43.03;22.52;;;4.40;99.90;;;;;;5033194;28;20032;-74
2022/01/18 06:25:18;;;;;;;38.53;21.90;;;3.60;99.90;;;;;;5034055;28;20490;-74
2022/01/18 06:27:44;;;;;;;37.53;20.95;;;3.30;99.90;;;;;;5033382;28;20387;-74
2022/01/18 06:30:10;;;;;;;41.42;20.95;;;3.50;99.90;;;;;;5013740;28;20029;-74
2022/01/18 06:32:43;;;;;;;33.72;19.17;;;3.40;99.90;;;;;;5014435;28;20112;-74
2022/01/18 06:35:09;;;;;;;37.13;18.27;;;3.50;99.90;;;;;;5024874;28;20037;-74
2022/01/18 06:37:35;;;;;;;37.70;19.75;;;4.30;99.90;;;;;;5028361;28;20029;-74
2022/01/18 06:40:03;;;;;;;33.40;18.17;;;4.70;99.90;;;;;;5022184;28;20028;-75
2022/01/18 06:42:29;;;;;;;50.55;29.85;;;3.50;99.90;;;;;;5027924;28;20033;-75
2022/01/18 06:44:54;;;;;;;38.78;20.42;;;3.50;99.90;;;;;;5023101;28;20045;-74
2022/01/18 06:47:20;;;;;;;34.53;17.90;;;3.40;99.90;;;;;;5027308;28;20429;-74
2022/01/18 06:49:46;;;;;;;42.63;22.45;;;3.50;99.90;;;;;;5021593;28;20028;-74
2022/01/18 06:52:11;;;;;;;45.42;27.10;;;3.40;99.90;;;;;;5023175;28;20071;-74
2022/01/18 06:54:37;;;;;;;52.67;29.88;;;3.30;99.90;;;;;;5026877;28;20479;-75
2022/01/18 06:57:03;;;;;;;46.78;25.63;;;3.30;99.90;;;;;;5022507;28;20030;-76
2022/01/18 06:59:29;;;;;;;38.33;21.13;;;3.30;99.90;;;;;;5020545;28;20030;-75
2022/01/18 07:01:55;;;;;;;38.60;20.15;;;3.20;99.90;;;;;;5030981;28;20383;-75
2022/01/18 07:04:20;;;;;;;37.45;19.58;;;3.20;99.90;;;;;;5033689;28;20032;-76
2022/01/18 07:06:47;;;;;;;41.33;22.02;;;3.40;99.90;;;;;;5033032;28;20041;-75
2022/01/18 07:09:15;;;;;;;40.72;20.55;;;3.70;99.90;;;;;;5032953;28;20075;-75
2022/01/18 07:11:41;;;;;;;41.55;22.38;;;3.40;99.90;;;;;;5033688;28;20055;-75
2022/01/18 07:14:07;;;;;;;39.47;21.35;;;3.50;99.90;;;;;;5033461;28;20021;-76
2022/01/18 07:16:33;;;;;;;44.28;23.35;;;3.30;99.90;;;;;;5032878;28;20044;-76
2022/01/18 07:18:58;;;;;;;44.40;22.60;;;3.30;99.90;;;;;;5032822;28;20022;-75
2022/01/18 07:21:24;;;;;;;49.15;25.30;;;3.40;99.90;;;;;;5033118;28;20081;-75
2022/01/18 07:24:02;;;;;;;47.60;23.48;;;3.30;99.90;;;;;;5028273;28;20040;-75
2022/01/18 07:26:28;;;;;;;46.25;24.77;;;3.50;99.90;;;;;;5032843;28;20033;-76
2022/01/18 07:28:54;;;;;;;47.20;23.33;;;3.30;99.90;;;;;;5032689;28;20116;-76
2022/01/18 07:31:19;;;;;;;56.40;24.80;;;3.40;99.90;;;;;;5019678;28;20072;-76
2022/01/18 07:33:45;;;;;;;49.10;24.45;;;3.40;99.90;;;;;;5007704;28;20038;-76
2022/01/18 07:36:11;;;;;;;52.13;24.05;;;4.40;99.90;;;;;;5026662;28;20040;-76
2022/01/18 07:38:36;;;;;;;51.95;25.25;;;4.10;99.90;;;;;;5021126;28;20021;-77
2022/01/18 07:41:02;;;;;;;45.35;22.90;;;3.60;99.90;;;;;;5030520;28;20030;-77
2022/01/18 07:43:28;;;;;;;48.30;24.20;;;3.50;99.90;;;;;;5029856;28;20418;-76
2022/01/18 07:45:53;;;;;;;49.58;23.30;;;3.60;99.90;;;;;;5031831;28;20033;-77
2022/01/18 07:48:24;;;;;;;47.33;24.77;;;3.70;99.90;;;;;;5032750;28;20036;-77
2022/01/18 07:50:51;;;;;;;49.13;24.50;;;3.80;99.90;;;;;;5031244;28;20034;-76
2022/01/18 07:53:18;;;;;;;52.22;25.02;;;3.80;99.90;;;;;;5032696;28;20021;-77
2022/01/18 07:55:44;;;;;;;51.00;26.05;;;3.80;99.90;;;;;;5031290;28;20059;-77
2022/01/18 07:58:09;;;;;;;58.45;26.65;;;5.50;99.90;;;;;;5031765;28;20045;-75
2022/01/18 08:00:35;;;;;;;58.60;26.80;;;4.00;99.90;;;;;;5031829;28;20405;-77
2022/01/18 08:03:01;;;;;;;55.75;27.15;;;4.00;99.90;;;;;;5032519;28;20496;-77
2022/01/18 08:05:27;;;;;;;54.25;26.65;;;4.70;99.90;;;;;;5032124;28;20487;-77
2022/01/18 08:07:53;;;;;;;52.83;26.77;;;4.10;99.90;;;;;;5032335;28;20060;-76
2022/01/18 08:10:18;;;;;;;63.58;30.25;;;4.20;99.90;;;;;;5031487;28;20123;-75
2022/01/18 08:12:45;;;;;;;49.10;26.75;;;5.50;99.90;;;;;;5032397;28;20025;-76
2022/01/18 08:15:16;;;;;;;49.40;25.48;;;4.30;99.90;;;;;;5031484;28;20029;-75
2022/01/18 08:17:45;;;;;;;40.53;23.73;;;6.00;99.90;;;;;;5032324;28;20471;-76
2022/01/18 08:20:13;;;;;;;40.33;22.10;;;4.40;99.90;;;;;;5031657;28;20495;-76
2022/01/18 08:22:41;;;;;;;40.13;21.80;;;4.50;99.90;;;;;;5032446;28;20030;-76
2022/01/18 08:25:07;;;;;;;43.25;23.60;;;4.80;99.90;;;;;;5031457;28;20029;-76
2022/01/18 08:27:32;;;;;;;43.00;22.65;;;4.60;99.90;;;;;;5030006;28;20087;-76
2022/01/18 08:29:58;;;;;;;37.42;22.48;;;4.70;99.90;;;;;;5012298;28;20034;-75
2022/01/18 08:32:23;;;;;;;36.22;20.55;;;4.90;99.90;;;;;;5021176;28;20071;-75
2022/01/18 08:34:49;;;;;;;43.67;23.98;;;5.00;99.90;;;;;;5029483;28;20095;-76
2022/01/18 08:37:15;;;;;;;37.00;22.67;;;5.00;99.90;;;;;;5028383;28;20100;-76
2022/01/18 08:39:41;;;;;;;35.78;20.80;;;4.90;99.90;;;;;;5031432;28;20033;-76
2022/01/18 08:42:08;;;;;;;34.97;19.27;;;5.10;99.90;;;;;;5031635;28;20033;-75
2022/01/18 08:44:35;;;;;;;34.13;19.60;;;5.10;99.90;;;;;;5031855;28;20060;-76
2022/01/18 08:47:00;;;;;;;33.28;18.88;;;5.20;99.90;;;;;;5031380;28;20140;-76
2022/01/18 08:49:26;;;;;;;33.08;18.23;;;5.30;99.90;;;;;;5031433;28;20506;-76
2022/01/18 08:51:52;;;;;;;31.23;18.23;;;5.30;99.90;;;;;;5031878;28;20038;-76
2022/01/18 08:54:17;;;;;;;30.45;16.92;;;5.50;99.90;;;;;;5030188;28;20076;-76
2022/01/18 08:56:43;;;;;;;29.88;17.90;;;4.90;99.90;;;;;;5028354;28;20030;-76
2022/01/18 08:59:08;;;;;;;27.85;17.70;;;5.70;99.90;;;;;;5026813;28;20034;-77
2022/01/18 09:01:34;;;;;;;26.65;17.10;;;6.70;99.90;;;;;;5026920;28;20029;-76
2022/01/18 09:04:01;;;;;;;27.42;17.27;;;7.10;99.90;;;;;;5011494;28;20038;-76
2022/01/18 09:06:29;;;;;;;27.90;17.73;;;6.20;99.90;;;;;;5026672;28;20025;-75
2022/01/18 09:08:58;;;;;;;29.25;17.38;;;6.70;99.90;;;;;;5026914;28;20025;-76
2022/01/18 09:11:24;;;;;;;26.08;16.17;;;6.10;99.90;;;;;;5028011;28;20033;-77
2022/01/18 09:13:52;;;;;;;27.38;16.30;;;6.40;99.90;;;;;;5026867;28;20032;-76
2022/01/18 09:16:19;;;;;;;28.30;16.77;;;;;;;;;;5026634;28;20514;-76
2022/01/18 09:18:45;;;;;;;23.60;14.25;;;;;;;;;;5027335;28;20026;-76
2022/01/18 09:21:10;;;;;;;24.10;14.50;;;8.30;99.90;;;;;;5026788;28;20033;-76
2022/01/18 09:23:38;;;;;;;19.20;12.63;;;9.30;99.90;;;;;;5026228;28;20434;-77
2022/01/18 09:26:04;;;;;;;20.13;13.63;;;9.60;99.90;;;;;;5026845;28;20030;-76
2022/01/18 09:28:30;;;;;;;22.42;13.60;;;8.40;99.90;;;;;;5026595;28;20024;-77
2022/01/18 09:30:55;;;;;;;18.70;12.80;;;9.40;99.90;;;;;;5028881;28;20034;-77
2022/01/18 09:33:21;;;;;;;18.90;12.23;;;8.80;99.90;;;;;;5030248;28;20111;-76
2022/01/18 09:35:47;;;;;;;23.92;15.20;;;9.30;99.90;;;;;;5032443;28;20033;-77
2022/01/18 09:38:12;;;;;;;18.65;13.00;;;9.90;99.90;;;;;;5032223;28;20034;-76
2022/01/18 09:40:39;;;;;;;17.70;11.90;;;10.30;99.90;;;;;;5014603;28;20026;-76
2022/01/18 09:43:10;;;;;;;18.52;12.38;;;10.20;99.90;;;;;;5010917;28;20037;-76
2022/01/18 09:45:36;;;;;;;21.23;12.60;;;10.10;99.90;;;;;;5026541;28;20051;-75
2022/01/18 09:48:03;;;;;;;17.42;11.90;;;10.30;99.90;;;;;;5030427;28;20032;-76
2022/01/18 09:50:33;;;;;;;19.25;12.80;;;10.00;99.90;;;;;;5030824;28;20049;-75
2022/01/18 09:53:01;;;;;;;18.15;12.00;;;10.90;99.90;;;;;;5029495;28;20029;-75
2022/01/18 09:55:29;;;;;;;17.90;12.52;;;9.40;99.90;;;;;;5029873;28;20387;-75
2022/01/18 09:57:56;;;;;;;20.17;12.93;;;9.20;99.90;;;;;;5029910;28;20053;-75
2022/01/18 10:00:23;;;;;;;19.80;12.57;;;9.70;99.90;;;;;;5029942;28;20025;-75
2022/01/18 10:02:49;;;;;;;21.00;12.55;;;10.20;99.90;;;;;;5029917;28;20022;-75
2022/01/18 10:05:29;;;;;;;19.20;13.18;;;9.90;99.90;;;;;;5029511;28;20560;-75
2022/01/18 10:07:56;;;;;;;21.65;13.35;;;10.80;99.90;;;;;;5030823;28;20080;-75
2022/01/18 10:10:40;;;;;;;23.00;14.15;;;9.30;99.90;;;;;;5030134;28;20036;-75
2022/01/18 10:13:07;;;;;;;23.30;14.43;;;9.10;99.90;;;;;;5030817;28;20052;-75
2022/01/18 10:15:33;;;;;;;23.48;13.88;;;9.40;99.90;;;;;;5028185;28;20038;-75
2022/01/18 10:18:06;;;;;;;24.25;14.88;;;9.40;99.90;;;;;;5030273;28;20022;-76
2022/01/18 10:20:47;;;;;;;20.83;12.88;;;9.10;99.90;;;;;;5029848;28;20025;-75
2022/01/18 10:23:24;;;;;;;17.98;11.40;;;9.00;99.90;;;;;;5030193;28;20036;-74
2022/01/18 10:25:50;;;;;;;19.55;12.25;;;9.00;99.90;;;;;;5029954;28;20029;-75
2022/01/18 10:28:30;;;;;;;21.98;13.25;;;9.40;99.90;;;;;;5030584;28;20075;-76
2022/01/18 10:30:57;;;;;;;21.92;13.63;;;10.10;99.90;;;;;;5030142;28;20116;-75
2022/01/18 10:33:28;;;;;;;22.70;13.60;;;9.30;99.90;;;;;;5029989;28;20014;-74
2022/01/18 10:36:12;;;;;;;24.80;14.65;;;9.60;99.90;;;;;;5029454;28;20564;-74
2022/01/18 10:38:40;;;;;;;20.73;12.88;;;8.20;99.90;;;;;;5028121;28;20080;-74
2022/01/18 10:41:27;;;;;;;18.45;11.85;;;9.50;99.90;;;;;;5026554;28;20451;-75
2022/01/18 10:44:03;;;;;;;19.95;11.77;;;10.50;99.90;;;;;;5020202;28;20565;-74
2022/01/18 10:46:37;;;;;;;17.73;11.48;;;9.60;99.90;;;;;;5027553;28;20047;-75
2022/01/18 10:49:04;;;;;;;14.50;10.10;;;10.00;99.90;;;;;;5016337;28;20096;-74
2022/01/18 10:51:34;;;;;;;14.25;9.43;;;11.50;99.90;;;;;;5009746;28;20026;-77
2022/01/18 10:54:03;;;;;;;15.02;8.45;;;10.60;99.90;;;;;;5009692;28;20018;-79
2022/01/18 10:56:40;;;;;;;16.05;8.23;;;10.50;99.90;;;;;;5013701;28;20063;-75
2022/01/18 10:59:06;;;;;;;15.05;8.13;;;10.20;99.90;;;;;;5013385;28;20026;-74
2022/01/18 11:01:32;;;;;;;11.30;6.65;;;11.30;99.90;;;;;;5027895;28;20025;-75
2022/01/18 11:04:11;;;;;;;12.00;6.63;;;9.90;99.90;;;;;;5033427;28;20036;-73
2022/01/18 11:06:38;;;;;;;11.00;6.65;;;10.00;99.90;;;;;;5033521;28;20025;-74
2022/01/18 11:09:14;;;;;;;11.77;6.22;;;10.90;99.90;;;;;;5032990;28;20517;-75
2022/01/18 11:11:45;;;;;;;13.63;6.88;;;11.70;99.90;;;;;;5033667;28;20032;-74
2022/01/18 11:14:12;;;;;;;12.27;6.60;;;12.40;99.90;;;;;;5032130;28;20038;-76
2022/01/18 11:16:42;;;;;;;11.80;7.72;;;12.60;99.90;;;;;;5032601;28;20026;-74
2022/01/18 11:19:28;;;;;;;13.13;7.15;;;12.30;99.90;;;;;;5032787;28;20025;-74
2022/01/18 11:22:09;;;;;;;14.90;7.47;;;12.00;99.90;;;;;;5033440;28;20025;-74
2022/01/18 11:24:39;;;;;;;9.45;5.68;;;11.80;99.90;;;;;;5033299;28;20112;-74
2022/01/18 11:27:11;;;;;;;15.80;7.28;;;11.90;99.90;;;;;;5032977;28;20502;-75
2022/01/18 11:29:37;;;;;;;12.30;6.80;;;12.60;99.90;;;;;;5022193;28;20510;-75
2022/01/18 11:32:04;;;;;;;11.07;6.75;;;12.50;99.90;;;;;;5023113;28;20022;-75
2022/01/18 11:34:29;;;;;;;11.55;6.70;;;11.10;99.90;;;;;;5023921;28;20022;-74
2022/01/18 11:37:05;;;;;;;12.95;7.78;;;10.50;99.90;;;;;;5024000;28;20573;-74
2022/01/18 11:39:31;;;;;;;14.27;6.68;;;10.60;99.90;;;;;;5021145;28;20022;-74
2022/01/18 11:42:13;;;;;;;11.75;7.10;;;10.20;99.90;;;;;;5023676;28;20032;-74
2022/01/18 11:44:39;;;;;;;12.48;7.32;;;9.90;99.90;;;;;;5022509;28;20041;-74
2022/01/18 11:47:06;;;;;;;16.63;7.25;;;10.20;99.90;;;;;;5021858;28;20034;-74
2022/01/18 11:49:34;;;;;;;14.82;7.25;;;9.80;99.90;;;;;;5023023;28;20105;-74
2022/01/18 11:52:10;;;;;;;12.63;6.40;;;9.80;99.90;;;;;;5022705;28;20025;-74
2022/01/18 11:57:23;;;;;;;11.55;5.85;;;10.00;99.90;;;;;;5024428;28;20025;-75
2022/01/18 12:00:10;;;;;;;10.32;4.70;;;11.00;99.90;;;;;;5031322;28;20100;-75
2022/01/18 12:02:42;;;;;;;10.95;5.70;;;10.10;99.90;;;;;;5029544;28;20042;-75
2022/01/18 12:05:18;;;;;;;9.38;5.32;;;11.40;99.90;;;;;;5024782;28;20030;-75
2022/01/18 12:07:44;;;;;;;7.90;4.40;;;10.40;99.90;;;;;;5032594;28;20026;-74
2022/01/18 12:10:19;;;;;;;8.40;4.68;;;10.00;99.90;;;;;;5028688;28;20032;-75
2022/01/18 12:12:46;;;;;;;9.00;5.28;;;9.80;99.90;;;;;;5031720;28;20060;-74
2022/01/18 12:15:24;;;;;;;8.13;3.80;;;10.10;99.90;;;;;;5031958;28;20029;-74
2022/01/18 12:17:59;;;;;;;8.95;3.67;;;9.80;99.90;;;;;;5032155;28;20037;-74
2022/01/18 12:20:46;;;;;;;8.32;3.53;;;9.90;99.90;;;;;;5031462;28;20083;-75
2022/01/18 12:23:21;;;;;;;10.63;4.70;;;10.00;99.90;;;;;;5032521;28;20025;-74
2022/01/18 12:26:11;;;;;;;9.40;4.35;;;10.00;99.90;;;;;;5031517;28;20026;-75
2022/01/18 12:29:19;;;;;;;8.05;3.70;;;9.90;99.90;;;;;;5020731;28;20052;-76
2022/01/18 12:34:47;;;;;;;5.60;3.00;;;10.80;99.90;;;;;;5031886;28;20033;-76
2022/01/18 12:39:54;;;;;;;6.60;3.07;;;9.90;99.90;;;;;;5031524;28;20025;-76
2022/01/18 12:45:03;;;;;;;5.97;2.95;;;10.20;99.90;;;;;;5022356;28;20351;-76
2022/01/18 12:47:29;;;;;;;5.68;2.30;;;10.30;99.90;;;;;;5031344;28;20022;-77
2022/01/18 12:49:55;;;;;;;5.30;2.30;;;10.30;99.90;;;;;;5014820;28;20037;-76
2022/01/18 12:52:21;;;;;;;5.40;2.38;;;10.40;99.90;;;;;;5031470;28;20614;-76
2022/01/18 12:54:48;;;;;;;9.02;2.70;;;10.30;99.90;;;;;;5031241;28;20499;-76
2022/01/18 12:57:21;;;;;;;6.25;3.20;;;10.00;99.90;;;;;;5031168;28;20014;-76
2022/01/18 13:00:07;;;;;;;6.55;2.88;;;9.60;99.90;;;;;;5031280;28;20096;-76
2022/01/18 13:02:34;;;;;;;8.13;3.08;;;9.70;99.90;;;;;;5026123;28;20125;-76
2022/01/18 13:05:08;;;;;;;8.77;3.33;;;9.60;99.90;;;;;;5024081;28;20030;-76
2022/01/18 13:07:49;;;;;;;6.43;3.35;;;11.00;99.90;;;;;;5016378;28;20068;-74
2022/01/18 13:10:15;;;;;;;5.45;2.80;;;11.20;99.90;;;;;;5028257;28;20501;-74
2022/01/18 13:12:40;;;;;;;4.70;2.33;;;9.80;99.90;;;;;;5024702;28;20109;-74
2022/01/18 13:15:08;;;;;;;4.40;2.10;;;9.70;99.90;;;;;;5026085;28;20104;-77
2022/01/18 13:23:26;;;;;;;4.38;2.25;;;9.30;99.90;;;;;;5028665;28;20398;-76
2022/01/18 13:25:58;;;;;;;4.45;1.77;;;10.00;99.90;;;;;;5027456;28;20034;-76
2022/01/18 13:28:37;;;;;;;4.57;2.40;;;9.40;99.90;;;;;;5025212;28;20036;-76
2022/01/18 13:31:15;;;;;;;5.35;2.30;;;6.80;99.90;;;;;;5024850;28;20026;-77
2022/01/18 13:33:48;;;;;;;4.13;1.55;;;8.90;99.90;;;;;;5029255;28;20029;-76
2022/01/18 13:36:14;;;;;;;2.42;1.10;;;9.90;99.90;;;;;;5027663;28;20473;-76
2022/01/18 13:38:39;;;;;;;3.20;1.85;;;8.80;99.90;;;;;;5024263;28;20164;-74
2022/01/18 13:41:05;;;;;;;5.65;2.20;;;8.30;99.90;;;;;;5024187;28;20116;-74
2022/01/18 13:43:32;;;;;;;7.25;2.38;;;8.50;99.90;;;;;;5025745;28;20017;-74
2022/01/18 13:45:58;;;;;;;8.07;3.47;;;8.40;99.90;;;;;;5026923;28;20642;-74
2022/01/18 13:48:33;;;;;;;6.88;3.13;;;8.30;99.90;;;;;;5023346;28;20030;-74
2022/01/18 13:51:14;;;;;;;6.53;3.25;;;8.40;99.90;;;;;;5026243;28;20021;-74
2022/01/18 13:53:40;;;;;;;6.72;3.53;;;8.10;99.90;;;;;;5024196;28;20025;-74
2022/01/18 13:56:20;;;;;;;6.93;3.20;;;8.10;99.90;;;;;;5024374;28;20022;-74
2022/01/18 13:58:48;;;;;;;11.00;4.90;;;8.00;99.90;;;;;;5024774;28;21037;-74
2022/01/18 14:01:20;;;;;;;5.45;2.85;;;8.90;99.90;;;;;;5025926;28;20379;-74
2022/01/18 14:03:53;;;;;;;4.13;2.33;;;8.10;99.90;;;;;;5028256;28;20627;-74
2022/01/18 14:06:20;;;;;;;4.05;2.10;;;8.80;99.90;;;;;;5018538;28;20284;-74
2022/01/18 14:08:54;;;;;;;7.30;2.25;;;8.70;99.90;;;;;;5032682;28;20087;-74
2022/01/18 14:11:24;;;;;;;4.80;2.67;;;8.00;99.90;;;;;;5034614;28;20034;-74
2022/01/18 14:13:52;;;;;;;5.72;2.25;;;8.00;99.90;;;;;;5032033;28;20075;-75
2022/01/18 14:16:19;;;;;;;5.75;2.40;;;8.40;99.90;;;;;;5012392;28;20034;-74
2022/01/18 14:18:52;;;;;;;3.75;1.95;;;8.60;99.90;;;;;;5030479;28;20029;-75
2022/01/18 14:21:42;;;;;;;5.28;1.95;;;9.30;99.90;;;;;;5012142;28;20052;-75
2022/01/18 14:24:20;;;;;;;6.05;1.85;;;8.00;99.90;;;;;;5027255;28;20025;-74